KMHR/MHR METAR and TAF weather

Enter ICAO airport designator
Station Type Date Time Source
KMHR METAR 2021/01/20 21:55 UTC NOAA

KMHR 202155Z 00000KT 10SM SKV 18/M05 A3006


Station Type Date Time Source
KMHR Decoded METAR 2021/01/20 21:55 UTC NOAA

Sacramento, Sacramento Mather Airport, CA, United States (KMHR) 38-33N 121-18W
Jan 20, 2021 - 04:55 PM EST / 2021.01.20 2155 UTC
Wind: Calm:0
Visibility: 10 mile(s):0
Temperature: 64 F (18 C)
Dew Point: 23 F (-5 C)
Relative Humidity: 20%
Pressure (altimeter): 30.06 in. Hg (1017 hPa)
ob: KMHR 202155Z 00000KT 10SM SKV 18/M05 A3006
cycle: 22

Station Type Date Time Source
KMHR TAF 2021/01/20 18:39 UTC NOAA

TAF KMHR 201737Z 2018/2118 VRB04KT P6SM SKC

Example: see airport list